Stena Penguin — ZCEC9 — position and weather

sailwx.info

Track history (hours):
 
Tides and Currents Weather Stations Pressure Air Temp Water Temp Dewpoint Dewpoint Depression Visibility Wind Speed Wind Dir Waves Ship Positions

Stena Penguin

Last reported at 2017-Nov-14 16:53 UTC. Time now 2017-Nov-23 15:20 UTC.
Position N 38°51' W 075°05'.
Warning: this ship's position is 8 days out of date.

Length 183 m; draft 7.6 m.

Type: Ship. MMSI: 310602000.

Date/timePositionNaut miles runAvg speedWind from/ knotsBaromVisibWave heightAir tempDewpointWater temp
2017-Nov-14 16:53N 38°51' W 075°05'615.1
2017-Nov-14 16:30N 38°56' W 075°06'815.7
2017-Nov-14 16:00N 39°04' W 075°10'816.0
2017-Nov-14 15:30N 39°10' W 075°16'815.7
2017-Nov-14 15:00N 39°17' W 075°22'815.4
2017-Nov-14 14:31N 39°23' W 075°28'714.0
2017-Nov-14 14:00N 39°28' W 075°34'612.4
2017-Nov-14 13:30N 39°34' W 075°33'611.0
2017-Nov-14 13:01N 39°40' W 075°32'611.7
2017-Nov-14 12:31N 39°45' W 075°29'510.4
2017-Nov-14 12:01N 39°49' W 075°24'3 6.9
2017-Nov-14 11:30N 39°51' W 075°21'510.7
2017-Nov-14 11:00N 39°52' W 075°14'0 0.5
2017-Nov-14 10:28N 39°52' W 075°13'0 0.2
2017-Nov-14 09:58N 39°52' W 075°14'0 0.1
2017-Nov-14 09:28N 39°52' W 075°14'0 0.1
2017-Nov-14 08:58N 39°52' W 075°14'0 0.1
2017-Nov-14 08:28N 39°52' W 075°14'0 0.0
2017-Nov-14 07:58N 39°52' W 075°14'0 0.0
2017-Nov-14 07:28N 39°52' W 075°14'0 0.0
2017-Nov-14 06:58N 39°52' W 075°14'0 0.0
2017-Nov-14 06:28N 39°52' W 075°14'0 0.0
2017-Nov-14 05:58N 39°52' W 075°14'0 0.0
2017-Nov-14 05:28N 39°52' W 075°14'0 0.0
2017-Nov-14 04:58N 39°52' W 075°14'0 0.1
2017-Nov-14 04:28N 39°52' W 075°14'0 0.2
2017-Nov-14 03:58N 39°52' W 075°13'0 0.2
2017-Nov-14 03:28N 39°52' W 075°13'0 0.0
2017-Nov-14 02:58N 39°52' W 075°13'0 0.0
2017-Nov-14 02:28N 39°52' W 075°13'0 0.0
2017-Nov-14 01:58N 39°52' W 075°13'0 0.0
2017-Nov-14 01:28N 39°52' W 075°13'0 0.1
2017-Nov-14 01:01N 39°52' W 075°13'1 2.0
2017-Nov-14 00:31N 39°51' W 075°15'5 9.5
2017-Nov-14 00:01N 39°51' W 075°21'5 9.5
2017-Nov-13 23:30N 39°48' W 075°26'611.1
2017-Nov-13 23:00N 39°44' W 075°30'611.5
2017-Nov-13 22:30N 39°38' W 075°34'5 9.4
2017-Nov-13 22:01N 39°34' W 075°33'2 0.1
2017-Nov-13 02:00N 39°35' W 075°35'0 0.0
2017-Nov-13 01:30N 39°35' W 075°35'0 0.0
2017-Nov-13 01:00N 39°35' W 075°35'0 0.0
2017-Nov-13 00:30N 39°35' W 075°35'0 0.0
2017-Nov-13 00:00N 39°35' W 075°35'0 0.0
2017-Nov-12 23:30N 39°35' W 075°35'0 0.0
2017-Nov-12 23:00N 39°35' W 075°35'0 0.0
2017-Nov-12 22:30N 39°35' W 075°35'0 0.0
2017-Nov-12 22:00N 39°35' W 075°35'0 0.0
2017-Nov-12 21:30N 39°35' W 075°35'0 0.0
2017-Nov-12 21:00N 39°35' W 075°35'0 0.0
2017-Nov-12 20:30N 39°35' W 075°35'0 0.0
2017-Nov-12 20:00N 39°35' W 075°35'0 0.0
2017-Nov-12 19:30N 39°35' W 075°35'0 0.0
2017-Nov-12 19:00N 39°35' W 075°35'0 0.0
2017-Nov-12 18:30N 39°35' W 075°35'0 0.0
2017-Nov-12 18:00N 39°35' W 075°35'0 0.0
2017-Nov-12 17:30N 39°35' W 075°35'0 0.0
2017-Nov-12 17:00N 39°35' W 075°35'0 0.0
2017-Nov-12 16:30N 39°35' W 075°35'0 0.0
2017-Nov-12 16:00N 39°35' W 075°35'0 0.0
2017-Nov-12 15:30N 39°35' W 075°35'0 0.0
2017-Nov-12 15:00N 39°35' W 075°35'0 0.0
2017-Nov-12 14:30N 39°35' W 075°35'0 0.0
2017-Nov-12 14:00N 39°35' W 075°35'0 0.0
2017-Nov-12 13:30N 39°35' W 075°35'0 0.0
2017-Nov-12 13:00N 39°35' W 075°35'0 0.0
2017-Nov-12 12:30N 39°35' W 075°35'0 0.0
2017-Nov-12 12:00N 39°35' W 075°35'0 0.0
2017-Nov-12 11:30N 39°35' W 075°35'0 0.0
2017-Nov-12 11:00N 39°35' W 075°35'0 0.0
2017-Nov-12 10:30N 39°35' W 075°35'0 0.0
2017-Nov-12 10:00N 39°35' W 075°35'0 0.0
2017-Nov-12 09:30N 39°35' W 075°35'0 0.0
2017-Nov-12 09:00N 39°35' W 075°35'0 0.0
2017-Nov-12 08:30N 39°35' W 075°35'0 0.0
2017-Nov-12 08:00N 39°35' W 075°35'0 0.0
2017-Nov-12 07:30N 39°35' W 075°35'0 0.0
2017-Nov-12 07:00N 39°35' W 075°35'0 0.0
2017-Nov-12 06:30N 39°35' W 075°35'0 0.0
2017-Nov-12 06:00N 39°35' W 075°35'0 0.0
2017-Nov-12 05:30N 39°35' W 075°35'0 0.0
2017-Nov-12 05:00N 39°35' W 075°35'0 0.0
2017-Nov-12 04:30N 39°35' W 075°35'0 0.0
2017-Nov-12 04:00N 39°35' W 075°35'0 0.0
2017-Nov-12 03:30N 39°35' W 075°35'0 0.0
2017-Nov-12 03:00N 39°35' W 075°35'0 0.0
2017-Nov-12 02:30N 39°35' W 075°35'0 0.0
2017-Nov-12 02:00N 39°35' W 075°35'0 0.0
2017-Nov-12 01:30N 39°35' W 075°35'0 0.0
2017-Nov-12 01:00N 39°35' W 075°35'0 0.0
2017-Nov-12 00:30N 39°35' W 075°35'0 0.0
2017-Nov-12 00:00N 39°35' W 075°35'0 0.0
2017-Nov-11 23:30N 39°35' W 075°35'0 0.0
2017-Nov-11 23:00N 39°35' W 075°35'0 0.0
2017-Nov-11 22:30N 39°35' W 075°35'0 0.0
2017-Nov-11 22:00N 39°35' W 075°35'0 0.0
2017-Nov-11 21:30N 39°35' W 075°35'0 0.0
2017-Nov-11 21:00N 39°35' W 075°35'0 0.0
2017-Nov-11 20:30N 39°35' W 075°35'0 0.0
2017-Nov-11 20:00N 39°35' W 075°35'0 0.0
2017-Nov-11 19:30N 39°35' W 075°35'0 0.0
2017-Nov-11 19:00N 39°35' W 075°35'0 0.0
2017-Nov-11 18:30N 39°35' W 075°35'0 0.0
2017-Nov-11 18:00N 39°35' W 075°35'0 0.0
2017-Nov-11 17:30N 39°35' W 075°35'0 0.0
2017-Nov-11 17:00N 39°35' W 075°35'0 0.0
2017-Nov-11 16:24N 39°35' W 075°35'0 0.0
2017-Nov-11 16:00N 39°35' W 075°35'0 0.0
2017-Nov-11 15:30N 39°35' W 075°35'0 0.0
2017-Nov-11 14:57N 39°35' W 075°35'0 0.0
2017-Nov-11 14:30N 39°35' W 075°35'0 0.0
2017-Nov-11 14:00N 39°35' W 075°35'0 0.0
2017-Nov-11 13:30N 39°35' W 075°35'0 0.0
2017-Nov-11 13:00N 39°35' W 075°35'0 0.0
2017-Nov-11 12:30N 39°35' W 075°35'0 0.0
2017-Nov-11 12:00N 39°35' W 075°35'0 0.5
2017-Nov-11 11:30N 39°35' W 075°35'2 4.1
2017-Nov-11 11:00N 39°34' W 075°33'2 4.2
2017-Nov-11 10:30N 39°36' W 075°34'3 6.6
2017-Nov-11 10:01N 39°39' W 075°33'4 7.6
2017-Nov-11 09:30N 39°42' W 075°31'4 7.9
2017-Nov-11 09:00N 39°46' W 075°29'4 8.6
2017-Nov-11 08:30N 39°49' W 075°24'510.0
2017-Nov-11 08:00N 39°51' W 075°18'4 8.2
2017-Nov-11 07:30N 39°52' W 075°13'4 7.8
2017-Nov-11 07:01N 39°53' W 075°08'3 6.0
2017-Nov-11 06:30N 39°56' W 075°08'0 0.2
2017-Nov-11 05:59N 39°56' W 075°08'0 0.0
2017-Nov-11 05:29N 39°56' W 075°08'0 0.0
2017-Nov-11 04:59N 39°56' W 075°08'0 0.0
2017-Nov-11 04:29N 39°56' W 075°08'0 0.0
2017-Nov-11 03:59N 39°56' W 075°08'0 0.0
2017-Nov-11 03:29N 39°56' W 075°08'0 0.0
2017-Nov-11 02:59N 39°56' W 075°08'0 0.0
2017-Nov-11 02:29N 39°56' W 075°08'0 0.0
2017-Nov-11 01:59N 39°56' W 075°08'0 0.0
2017-Nov-11 01:29N 39°56' W 075°08'0 0.0
2017-Nov-11 00:59N 39°56' W 075°08'0 0.1
2017-Nov-11 00:29N 39°56' W 075°08'0 0.2
2017-Nov-10 23:59N 39°56' W 075°08'0 0.1
2017-Nov-10 23:29N 39°56' W 075°08'0 0.1
2017-Nov-10 22:59N 39°56' W 075°08'0 0.1
2017-Nov-10 22:29N 39°56' W 075°08'0 0.0
2017-Nov-10 21:59N 39°56' W 075°08'0 0.0
2017-Nov-10 21:29N 39°56' W 075°08'0 0.0
2017-Nov-10 20:59N 39°56' W 075°08'0 0.1
2017-Nov-10 20:29N 39°56' W 075°08'0 0.3
2017-Nov-10 19:59N 39°56' W 075°08'0 0.2
2017-Nov-10 19:29N 39°56' W 075°08'0 0.0
2017-Nov-10 18:59N 39°56' W 075°08'0 0.0
2017-Nov-10 18:29N 39°56' W 075°08'0 0.0
2017-Nov-10 17:59N 39°56' W 075°08'0 0.0
2017-Nov-10 17:29N 39°56' W 075°08'0 0.0
2017-Nov-10 16:59N 39°56' W 075°08'0 0.0
2017-Nov-10 16:29N 39°56' W 075°08'0 0.0
2017-Nov-10 15:59N 39°56' W 075°08'0 0.0
2017-Nov-10 15:29N 39°56' W 075°08'0 0.0
2017-Nov-10 14:56N 39°56' W 075°08'0 0.0
2017-Nov-10 14:29N 39°56' W 075°08'0 0.0
2017-Nov-10 13:59N 39°56' W 075°08'0 0.0
2017-Nov-10 13:29N 39°56' W 075°08'0 0.0
2017-Nov-10 12:59N 39°56' W 075°08'0 0.1
2017-Nov-10 12:29N 39°56' W 075°08'0 0.2
2017-Nov-10 11:59N 39°56' W 075°08'0 0.2
2017-Nov-10 11:29N 39°56' W 075°08'0 0.1
2017-Nov-10 10:59N 39°56' W 075°08'0 0.0
2017-Nov-10 10:29N 39°56' W 075°08'0 0.0
2017-Nov-10 09:59N 39°56' W 075°08'0 0.0
2017-Nov-10 09:29N 39°56' W 075°08'0 0.0
2017-Nov-10 08:59N 39°56' W 075°08'0 0.0
2017-Nov-10 08:29N 39°56' W 075°08'0 0.0
2017-Nov-10 07:59N 39°56' W 075°08'0 0.0
2017-Nov-10 07:29N 39°56' W 075°08'0 0.3
2017-Nov-10 06:59N 39°56' W 075°08'0 0.2
2017-Nov-10 06:29N 39°56' W 075°08'0 0.0
2017-Nov-10 05:59N 39°56' W 075°08'0 0.0
2017-Nov-10 05:29N 39°56' W 075°08'0 0.0
2017-Nov-10 04:59N 39°56' W 075°08'0 0.0
2017-Nov-10 04:29N 39°56' W 075°08'0 0.2
2017-Nov-10 04:00N 39°56' W 075°08'1 2.6
2017-Nov-10 03:30N 39°57' W 075°08'3 6.4
2017-Nov-10 03:00N 39°59' W 075°04'0 0.2
2017-Nov-10 02:30N 39°59' W 075°04'0 0.0
2017-Nov-10 02:00N 39°59' W 075°04'0 0.0
2017-Nov-10 01:30N 39°59' W 075°04'0 0.0
2017-Nov-10 01:00N 39°59' W 075°04'0 0.0
2017-Nov-10 00:30N 39°59' W 075°04'0 0.0
2017-Nov-10 00:00N 39°59' W 075°04'0 0.0
2017-Nov-09 23:30N 39°59' W 075°04'0 0.0
2017-Nov-09 23:00N 39°59' W 075°04'0 0.0
2017-Nov-09 22:30N 39°59' W 075°04'0 0.0
2017-Nov-09 22:00N 39°59' W 075°04'0 0.0
2017-Nov-09 21:30N 39°59' W 075°04'0 0.0
2017-Nov-09 21:00N 39°59' W 075°04'0 0.0
2017-Nov-09 20:30N 39°59' W 075°04'0 0.0
2017-Nov-09 20:00N 39°59' W 075°04'0 0.0
2017-Nov-09 19:30N 39°59' W 075°04'0 0.0
2017-Nov-09 19:00N 39°59' W 075°04'0 0.0
2017-Nov-09 18:30N 39°59' W 075°04'0 0.0
2017-Nov-09 18:00N 39°59' W 075°04'0 0.0
2017-Nov-09 17:30N 39°59' W 075°04'0 0.0
2017-Nov-09 17:00N 39°59' W 075°04'0 0.0
2017-Nov-09 16:30N 39°59' W 075°04'0 0.0
2017-Nov-09 16:00N 39°59' W 075°04'0 0.0
2017-Nov-09 15:30N 39°59' W 075°04'0 0.0
2017-Nov-09 15:00N 39°59' W 075°04'0 0.0
2017-Nov-09 14:30N 39°59' W 075°04'0 0.0
2017-Nov-09 13:57N 39°59' W 075°04'0 0.0
2017-Nov-09 13:27N 39°59' W 075°04'0 0.0
2017-Nov-09 13:00N 39°59' W 075°04'0 0.0
2017-Nov-09 12:30N 39°59' W 075°04'0 0.0
2017-Nov-09 12:00N 39°59' W 075°04'0 0.0
2017-Nov-09 11:30N 39°59' W 075°04'0 0.0
2017-Nov-09 11:00N 39°59' W 075°04'0 0.0
2017-Nov-09 10:30N 39°59' W 075°04'0 0.0
2017-Nov-09 09:57N 39°59' W 075°04'0 0.0
2017-Nov-09 09:30N 39°59' W 075°04'0 0.0
2017-Nov-09 09:00N 39°59' W 075°04'0 0.0
2017-Nov-09 08:30N 39°59' W 075°04'0 0.0
2017-Nov-09 08:00N 39°59' W 075°04'0 0.0
2017-Nov-09 07:30N 39°59' W 075°04'0 0.0
2017-Nov-09 07:00N 39°59' W 075°04'0 0.0
2017-Nov-09 06:30N 39°59' W 075°04'0 0.0
2017-Nov-09 06:00N 39°59' W 075°04'0 0.0
2017-Nov-09 05:30N 39°59' W 075°04'0 0.0
2017-Nov-09 05:00N 39°59' W 075°04'0 0.0
2017-Nov-09 04:30N 39°59' W 075°04'0 0.0
2017-Nov-09 04:00N 39°59' W 075°04'0 0.0
2017-Nov-09 03:30N 39°59' W 075°04'0 0.0
2017-Nov-09 03:00N 39°59' W 075°04'0 0.0
2017-Nov-09 02:30N 39°59' W 075°04'0 0.0
2017-Nov-09 02:00N 39°59' W 075°04'0 0.0
2017-Nov-09 01:30N 39°59' W 075°04'0 0.0
2017-Nov-09 01:00N 39°59' W 075°04'0 0.0
2017-Nov-09 00:30N 39°59' W 075°04'0 0.0
2017-Nov-09 00:00N 39°59' W 075°04'0 0.0
2017-Nov-08 23:30N 39°59' W 075°04'0 0.0
2017-Nov-08 23:00N 39°59' W 075°04'0 0.5
2017-Nov-08 22:31N 39°59' W 075°05'2 3.9
2017-Nov-08 22:00N 39°58' W 075°07'3 5.6
2017-Nov-08 21:31N 39°55' W 075°08'3 5.6
2017-Nov-08 21:00N 39°53' W 075°10'3 6.7
2017-Nov-08 20:30N 39°52' W 075°14'4 7.6
2017-Nov-08 20:00N 39°51' W 075°19'611.9
2017-Nov-08 19:30N 39°48' W 075°25'510.5
2017-Nov-08 19:00N 39°44' W 075°30'510.3
2017-Nov-08 18:30N 39°39' W 075°33'611.6
2017-Nov-08 18:00N 39°34' W 075°33'713.5
2017-Nov-08 17:30N 39°27' W 075°33'714.1
2017-Nov-08 17:00N 39°22' W 075°27'714.6
2017-Nov-08 16:31N 39°16' W 075°21'713.7
2017-Nov-08 16:00N 39°10' W 075°16'613.0
2017-Nov-08 15:31N 39°05' W 075°11'612.9
2017-Nov-08 15:00N 38°59' W 075°08'1211.7
2017-Nov-08 13:59N 38°48' W 075°03'  
Track history (hours):
 
Tides and Currents Weather Stations Pressure Air Temp Water Temp Dewpoint Dewpoint Depression Visibility Wind Speed Wind Dir Waves Ship Positions

Stena Penguin

Last reported at 2017-Nov-14 16:53 UTC. Time now 2017-Nov-23 15:20 UTC.
Position N 38°51' W 075°05'.
Warning: this ship's position is 8 days out of date.

Length 183 m; draft 7.6 m.

Type: Ship. MMSI: 310602000.

Date/timePositionNaut miles runAvg speedWind from/ knotsBaromVisibWave heightAir tempDewpointWater temp
2017-Nov-14 16:53N 38°51' W 075°05'615.1
2017-Nov-14 16:30N 38°56' W 075°06'815.7
2017-Nov-14 16:00N 39°04' W 075°10'816.0
2017-Nov-14 15:30N 39°10' W 075°16'815.7
2017-Nov-14 15:00N 39°17' W 075°22'815.4
2017-Nov-14 14:31N 39°23' W 075°28'714.0
2017-Nov-14 14:00N 39°28' W 075°34'612.4
2017-Nov-14 13:30N 39°34' W 075°33'611.0
2017-Nov-14 13:01N 39°40' W 075°32'611.7
2017-Nov-14 12:31N 39°45' W 075°29'510.4
2017-Nov-14 12:01N 39°49' W 075°24'3 6.9
2017-Nov-14 11:30N 39°51' W 075°21'510.7
2017-Nov-14 11:00N 39°52' W 075°14'0 0.5
2017-Nov-14 10:28N 39°52' W 075°13'0 0.2
2017-Nov-14 09:58N 39°52' W 075°14'0 0.1
2017-Nov-14 09:28N 39°52' W 075°14'0 0.1
2017-Nov-14 08:58N 39°52' W 075°14'0 0.1
2017-Nov-14 08:28N 39°52' W 075°14'0 0.0
2017-Nov-14 07:58N 39°52' W 075°14'0 0.0
2017-Nov-14 07:28N 39°52' W 075°14'0 0.0
2017-Nov-14 06:58N 39°52' W 075°14'0 0.0
2017-Nov-14 06:28N 39°52' W 075°14'0 0.0
2017-Nov-14 05:58N 39°52' W 075°14'0 0.0
2017-Nov-14 05:28N 39°52' W 075°14'0 0.0
2017-Nov-14 04:58N 39°52' W 075°14'0 0.1
2017-Nov-14 04:28N 39°52' W 075°14'0 0.2
2017-Nov-14 03:58N 39°52' W 075°13'0 0.2
2017-Nov-14 03:28N 39°52' W 075°13'0 0.0
2017-Nov-14 02:58N 39°52' W 075°13'0 0.0
2017-Nov-14 02:28N 39°52' W 075°13'0 0.0
2017-Nov-14 01:58N 39°52' W 075°13'0 0.0
2017-Nov-14 01:28N 39°52' W 075°13'0 0.1
2017-Nov-14 01:01N 39°52' W 075°13'1 2.0
2017-Nov-14 00:31N 39°51' W 075°15'5 9.5
2017-Nov-14 00:01N 39°51' W 075°21'5 9.5
2017-Nov-13 23:30N 39°48' W 075°26'611.1
2017-Nov-13 23:00N 39°44' W 075°30'611.5
2017-Nov-13 22:30N 39°38' W 075°34'5 9.4
2017-Nov-13 22:01N 39°34' W 075°33'2 0.1
2017-Nov-13 02:00N 39°35' W 075°35'0 0.0
2017-Nov-13 01:30N 39°35' W 075°35'0 0.0
2017-Nov-13 01:00N 39°35' W 075°35'0 0.0
2017-Nov-13 00:30N 39°35' W 075°35'0 0.0
2017-Nov-13 00:00N 39°35' W 075°35'0 0.0
2017-Nov-12 23:30N 39°35' W 075°35'0 0.0
2017-Nov-12 23:00N 39°35' W 075°35'0 0.0
2017-Nov-12 22:30N 39°35' W 075°35'0 0.0
2017-Nov-12 22:00N 39°35' W 075°35'0 0.0
2017-Nov-12 21:30N 39°35' W 075°35'0 0.0
2017-Nov-12 21:00N 39°35' W 075°35'0 0.0
2017-Nov-12 20:30N 39°35' W 075°35'0 0.0
2017-Nov-12 20:00N 39°35' W 075°35'0 0.0
2017-Nov-12 19:30N 39°35' W 075°35'0 0.0
2017-Nov-12 19:00N 39°35' W 075°35'0 0.0
2017-Nov-12 18:30N 39°35' W 075°35'0 0.0
2017-Nov-12 18:00N 39°35' W 075°35'0 0.0
2017-Nov-12 17:30N 39°35' W 075°35'0 0.0
2017-Nov-12 17:00N 39°35' W 075°35'0 0.0
2017-Nov-12 16:30N 39°35' W 075°35'0 0.0
2017-Nov-12 16:00N 39°35' W 075°35'0 0.0
2017-Nov-12 15:30N 39°35' W 075°35'0 0.0
2017-Nov-12 15:00N 39°35' W 075°35'0 0.0
2017-Nov-12 14:30N 39°35' W 075°35'0 0.0
2017-Nov-12 14:00N 39°35' W 075°35'0 0.0
2017-Nov-12 13:30N 39°35' W 075°35'0 0.0
2017-Nov-12 13:00N 39°35' W 075°35'0 0.0
2017-Nov-12 12:30N 39°35' W 075°35'0 0.0
2017-Nov-12 12:00N 39°35' W 075°35'0 0.0
2017-Nov-12 11:30N 39°35' W 075°35'0 0.0
2017-Nov-12 11:00N 39°35' W 075°35'0 0.0
2017-Nov-12 10:30N 39°35' W 075°35'0 0.0
2017-Nov-12 10:00N 39°35' W 075°35'0 0.0
2017-Nov-12 09:30N 39°35' W 075°35'0 0.0
2017-Nov-12 09:00N 39°35' W 075°35'0 0.0
2017-Nov-12 08:30N 39°35' W 075°35'0 0.0
2017-Nov-12 08:00N 39°35' W 075°35'0 0.0
2017-Nov-12 07:30N 39°35' W 075°35'0 0.0
2017-Nov-12 07:00N 39°35' W 075°35'0 0.0
2017-Nov-12 06:30N 39°35' W 075°35'0 0.0
2017-Nov-12 06:00N 39°35' W 075°35'0 0.0
2017-Nov-12 05:30N 39°35' W 075°35'0 0.0
2017-Nov-12 05:00N 39°35' W 075°35'0 0.0
2017-Nov-12 04:30N 39°35' W 075°35'0 0.0
2017-Nov-12 04:00N 39°35' W 075°35'0 0.0
2017-Nov-12 03:30N 39°35' W 075°35'0 0.0
2017-Nov-12 03:00N 39°35' W 075°35'0 0.0
2017-Nov-12 02:30N 39°35' W 075°35'0 0.0
2017-Nov-12 02:00N 39°35' W 075°35'0 0.0
2017-Nov-12 01:30N 39°35' W 075°35'0 0.0
2017-Nov-12 01:00N 39°35' W 075°35'0 0.0
2017-Nov-12 00:30N 39°35' W 075°35'0 0.0
2017-Nov-12 00:00N 39°35' W 075°35'0 0.0
2017-Nov-11 23:30N 39°35' W 075°35'0 0.0
2017-Nov-11 23:00N 39°35' W 075°35'0 0.0
2017-Nov-11 22:30N 39°35' W 075°35'0 0.0
2017-Nov-11 22:00N 39°35' W 075°35'0 0.0
2017-Nov-11 21:30N 39°35' W 075°35'0 0.0
2017-Nov-11 21:00N 39°35' W 075°35'0 0.0
2017-Nov-11 20:30N 39°35' W 075°35'0 0.0
2017-Nov-11 20:00N 39°35' W 075°35'0 0.0
2017-Nov-11 19:30N 39°35' W 075°35'0 0.0
2017-Nov-11 19:00N 39°35' W 075°35'0 0.0
2017-Nov-11 18:30N 39°35' W 075°35'0 0.0
2017-Nov-11 18:00N 39°35' W 075°35'0 0.0
2017-Nov-11 17:30N 39°35' W 075°35'0 0.0
2017-Nov-11 17:00N 39°35' W 075°35'0 0.0
2017-Nov-11 16:24N 39°35' W 075°35'0 0.0
2017-Nov-11 16:00N 39°35' W 075°35'0 0.0
2017-Nov-11 15:30N 39°35' W 075°35'0 0.0
2017-Nov-11 14:57N 39°35' W 075°35'0 0.0
2017-Nov-11 14:30N 39°35' W 075°35'0 0.0
2017-Nov-11 14:00N 39°35' W 075°35'0 0.0
2017-Nov-11 13:30N 39°35' W 075°35'0 0.0
2017-Nov-11 13:00N 39°35' W 075°35'0 0.0
2017-Nov-11 12:30N 39°35' W 075°35'0 0.0
2017-Nov-11 12:00N 39°35' W 075°35'0 0.5
2017-Nov-11 11:30N 39°35' W 075°35'2 4.1
2017-Nov-11 11:00N 39°34' W 075°33'2 4.2
2017-Nov-11 10:30N 39°36' W 075°34'3 6.6
2017-Nov-11 10:01N 39°39' W 075°33'4 7.6
2017-Nov-11 09:30N 39°42' W 075°31'4 7.9
2017-Nov-11 09:00N 39°46' W 075°29'4 8.6
2017-Nov-11 08:30N 39°49' W 075°24'510.0
2017-Nov-11 08:00N 39°51' W 075°18'4 8.2
2017-Nov-11 07:30N 39°52' W 075°13'4 7.8
2017-Nov-11 07:01N 39°53' W 075°08'3 6.0
2017-Nov-11 06:30N 39°56' W 075°08'0 0.2
2017-Nov-11 05:59N 39°56' W 075°08'0 0.0
2017-Nov-11 05:29N 39°56' W 075°08'0 0.0
2017-Nov-11 04:59N 39°56' W 075°08'0 0.0
2017-Nov-11 04:29N 39°56' W 075°08'0 0.0
2017-Nov-11 03:59N 39°56' W 075°08'0 0.0
2017-Nov-11 03:29N 39°56' W 075°08'0 0.0
2017-Nov-11 02:59N 39°56' W 075°08'0 0.0
2017-Nov-11 02:29N 39°56' W 075°08'0 0.0
2017-Nov-11 01:59N 39°56' W 075°08'0 0.0
2017-Nov-11 01:29N 39°56' W 075°08'0 0.0
2017-Nov-11 00:59N 39°56' W 075°08'0 0.1
2017-Nov-11 00:29N 39°56' W 075°08'0 0.2
2017-Nov-10 23:59N 39°56' W 075°08'0 0.1
2017-Nov-10 23:29N 39°56' W 075°08'0 0.1
2017-Nov-10 22:59N 39°56' W 075°08'0 0.1
2017-Nov-10 22:29N 39°56' W 075°08'0 0.0
2017-Nov-10 21:59N 39°56' W 075°08'0 0.0
2017-Nov-10 21:29N 39°56' W 075°08'0 0.0
2017-Nov-10 20:59N 39°56' W 075°08'0 0.1
2017-Nov-10 20:29N 39°56' W 075°08'0 0.3
2017-Nov-10 19:59N 39°56' W 075°08'0 0.2
2017-Nov-10 19:29N 39°56' W 075°08'0 0.0
2017-Nov-10 18:59N 39°56' W 075°08'0 0.0
2017-Nov-10 18:29N 39°56' W 075°08'0 0.0
2017-Nov-10 17:59N 39°56' W 075°08'0 0.0
2017-Nov-10 17:29N 39°56' W 075°08'0 0.0
2017-Nov-10 16:59N 39°56' W 075°08'0 0.0
2017-Nov-10 16:29N 39°56' W 075°08'0 0.0
2017-Nov-10 15:59N 39°56' W 075°08'0 0.0
2017-Nov-10 15:29N 39°56' W 075°08'0 0.0
2017-Nov-10 14:56N 39°56' W 075°08'0 0.0
2017-Nov-10 14:29N 39°56' W 075°08'0 0.0
2017-Nov-10 13:59N 39°56' W 075°08'0 0.0
2017-Nov-10 13:29N 39°56' W 075°08'0 0.0
2017-Nov-10 12:59N 39°56' W 075°08'0 0.1
2017-Nov-10 12:29N 39°56' W 075°08'0 0.2
2017-Nov-10 11:59N 39°56' W 075°08'0 0.2
2017-Nov-10 11:29N 39°56' W 075°08'0 0.1
2017-Nov-10 10:59N 39°56' W 075°08'0 0.0
2017-Nov-10 10:29N 39°56' W 075°08'0 0.0
2017-Nov-10 09:59N 39°56' W 075°08'0 0.0
2017-Nov-10 09:29N 39°56' W 075°08'0 0.0
2017-Nov-10 08:59N 39°56' W 075°08'0 0.0
2017-Nov-10 08:29N 39°56' W 075°08'0 0.0
2017-Nov-10 07:59N 39°56' W 075°08'0 0.0
2017-Nov-10 07:29N 39°56' W 075°08'0 0.3
2017-Nov-10 06:59N 39°56' W 075°08'0 0.2
2017-Nov-10 06:29N 39°56' W 075°08'0 0.0
2017-Nov-10 05:59N 39°56' W 075°08'0 0.0
2017-Nov-10 05:29N 39°56' W 075°08'0 0.0
2017-Nov-10 04:59N 39°56' W 075°08'0 0.0
2017-Nov-10 04:29N 39°56' W 075°08'0 0.2
2017-Nov-10 04:00N 39°56' W 075°08'1 2.6
2017-Nov-10 03:30N 39°57' W 075°08'3 6.4
2017-Nov-10 03:00N 39°59' W 075°04'0 0.2
2017-Nov-10 02:30N 39°59' W 075°04'0 0.0
2017-Nov-10 02:00N 39°59' W 075°04'0 0.0
2017-Nov-10 01:30N 39°59' W 075°04'0 0.0
2017-Nov-10 01:00N 39°59' W 075°04'0 0.0
2017-Nov-10 00:30N 39°59' W 075°04'0 0.0
2017-Nov-10 00:00N 39°59' W 075°04'0 0.0
2017-Nov-09 23:30N 39°59' W 075°04'0 0.0
2017-Nov-09 23:00N 39°59' W 075°04'0 0.0
2017-Nov-09 22:30N 39°59' W 075°04'0 0.0
2017-Nov-09 22:00N 39°59' W 075°04'0 0.0
2017-Nov-09 21:30N 39°59' W 075°04'0 0.0
2017-Nov-09 21:00N 39°59' W 075°04'0 0.0
2017-Nov-09 20:30N 39°59' W 075°04'0 0.0
2017-Nov-09 20:00N 39°59' W 075°04'0 0.0
2017-Nov-09 19:30N 39°59' W 075°04'0 0.0
2017-Nov-09 19:00N 39°59' W 075°04'0 0.0
2017-Nov-09 18:30N 39°59' W 075°04'0 0.0
2017-Nov-09 18:00N 39°59' W 075°04'0 0.0
2017-Nov-09 17:30N 39°59' W 075°04'0 0.0
2017-Nov-09 17:00N 39°59' W 075°04'0 0.0
2017-Nov-09 16:30N 39°59' W 075°04'0 0.0
2017-Nov-09 16:00N 39°59' W 075°04'0 0.0
2017-Nov-09 15:30N 39°59' W 075°04'0 0.0
2017-Nov-09 15:00N 39°59' W 075°04'0 0.0
2017-Nov-09 14:30N 39°59' W 075°04'0 0.0
2017-Nov-09 13:57N 39°59' W 075°04'0 0.0
2017-Nov-09 13:27N 39°59' W 075°04'0 0.0
2017-Nov-09 13:00N 39°59' W 075°04'0 0.0
2017-Nov-09 12:30N 39°59' W 075°04'0 0.0
2017-Nov-09 12:00N 39°59' W 075°04'0 0.0
2017-Nov-09 11:30N 39°59' W 075°04'0 0.0
2017-Nov-09 11:00N 39°59' W 075°04'0 0.0
2017-Nov-09 10:30N 39°59' W 075°04'0 0.0
2017-Nov-09 09:57N 39°59' W 075°04'0 0.0
2017-Nov-09 09:30N 39°59' W 075°04'0 0.0
2017-Nov-09 09:00N 39°59' W 075°04'0 0.0
2017-Nov-09 08:30N 39°59' W 075°04'0 0.0
2017-Nov-09 08:00N 39°59' W 075°04'0 0.0
2017-Nov-09 07:30N 39°59' W 075°04'0 0.0
2017-Nov-09 07:00N 39°59' W 075°04'0 0.0
2017-Nov-09 06:30N 39°59' W 075°04'0 0.0
2017-Nov-09 06:00N 39°59' W 075°04'0 0.0
2017-Nov-09 05:30N 39°59' W 075°04'0 0.0
2017-Nov-09 05:00N 39°59' W 075°04'0 0.0
2017-Nov-09 04:30N 39°59' W 075°04'0 0.0
2017-Nov-09 04:00N 39°59' W 075°04'0 0.0
2017-Nov-09 03:30N 39°59' W 075°04'0 0.0
2017-Nov-09 03:00N 39°59' W 075°04'0 0.0
2017-Nov-09 02:30N 39°59' W 075°04'0 0.0
2017-Nov-09 02:00N 39°59' W 075°04'0 0.0
2017-Nov-09 01:30N 39°59' W 075°04'0 0.0
2017-Nov-09 01:00N 39°59' W 075°04'0 0.0
2017-Nov-09 00:30N 39°59' W 075°04'0 0.0
2017-Nov-09 00:00N 39°59' W 075°04'0 0.0
2017-Nov-08 23:30N 39°59' W 075°04'0 0.0
2017-Nov-08 23:00N 39°59' W 075°04'0 0.5
2017-Nov-08 22:31N 39°59' W 075°05'2 3.9
2017-Nov-08 22:00N 39°58' W 075°07'3 5.6
2017-Nov-08 21:31N 39°55' W 075°08'3 5.6
2017-Nov-08 21:00N 39°53' W 075°10'3 6.7
2017-Nov-08 20:30N 39°52' W 075°14'4 7.6
2017-Nov-08 20:00N 39°51' W 075°19'611.9
2017-Nov-08 19:30N 39°48' W 075°25'510.5
2017-Nov-08 19:00N 39°44' W 075°30'510.3
2017-Nov-08 18:30N 39°39' W 075°33'611.6
2017-Nov-08 18:00N 39°34' W 075°33'713.5
2017-Nov-08 17:30N 39°27' W 075°33'714.1
2017-Nov-08 17:00N 39°22' W 075°27'714.6
2017-Nov-08 16:31N 39°16' W 075°21'713.7
2017-Nov-08 16:00N 39°10' W 075°16'613.0
2017-Nov-08 15:31N 39°05' W 075°11'612.9
2017-Nov-08 15:00N 38°59' W 075°08'1211.7
2017-Nov-08 13:59N 38°48' W 075°03'  

Dump ship's entire track history